EDW12R LOWW-LSZH
Flight info
| Callsign | EDW12R |
|---|---|
| Flight time | 0h 53m |
| Altitude | 32000 |
| Route | SOVIL1C SOVIL DCT SITNI DCT BAGSI DCT MATIG DCT TRAUN DCT KONIN/N0329F120 L856 NEGRA NEGRA2A |
| Aircraft | A320/M-VGDW/C |
Departure
| Time | 2026-04-26 18:27 |
|---|---|
| Airport | Vienna International Airport (LOWW) |
Arrival
| Time | 2026-04-26 19:20 |
|---|---|
| Airport | Zürich Airport (LSZH) |
| Time | Latitude | Longitude | Altitude | Speed | Heading |
|---|---|---|---|---|---|
| 2026-04-26 18:06 | 48.12278 | 16.57155 | 573 ft | 0 kts | 27° |
| 2026-04-26 18:17 | 48.12265 | 16.57147 | 601 ft | 6 kts | 22° |
| 2026-04-26 18:17 | 48.12239 | 16.57108 | 600 ft | 3 kts | 116° |
| 2026-04-26 18:18 | 48.12239 | 16.57107 | 600 ft | 0 kts | 116° |
| 2026-04-26 18:20 | 48.12239 | 16.57110 | 600 ft | 2 kts | 116° |
| 2026-04-26 18:20 | 48.12235 | 16.57121 | 600 ft | 5 kts | 115° |
| 2026-04-26 18:21 | 48.12168 | 16.57304 | 603 ft | 16 kts | 138° |
| 2026-04-26 18:21 | 48.12081 | 16.57362 | 604 ft | 11 kts | 164° |
| 2026-04-26 18:21 | 48.12023 | 16.57387 | 614 ft | 6 kts | 163° |
| 2026-04-26 18:21 | 48.11956 | 16.57416 | 610 ft | 18 kts | 166° |
| 2026-04-26 18:22 | 48.11796 | 16.57475 | 609 ft | 25 kts | 165° |
| 2026-04-26 18:22 | 48.11641 | 16.57551 | 613 ft | 22 kts | 169° |
| 2026-04-26 18:22 | 48.11493 | 16.57605 | 613 ft | 22 kts | 163° |
| 2026-04-26 18:22 | 48.11348 | 16.57664 | 610 ft | 20 kts | 165° |
| 2026-04-26 18:23 | 48.11312 | 16.57679 | 610 ft | 0 kts | 163° |
| 2026-04-26 18:25 | 48.11276 | 16.57684 | 610 ft | 16 kts | 184° |
| 2026-04-26 18:25 | 48.11183 | 16.57625 | 606 ft | 14 kts | 206° |
| 2026-04-26 18:25 | 48.11093 | 16.57543 | 609 ft | 16 kts | 213° |
| 2026-04-26 18:25 | 48.11064 | 16.57518 | 614 ft | 0 kts | 207° |
| 2026-04-26 18:26 | 48.11057 | 16.57512 | 610 ft | 6 kts | 207° |
| 2026-04-26 18:26 | 48.10983 | 16.57456 | 606 ft | 18 kts | 208° |
| 2026-04-26 18:26 | 48.10985 | 16.57315 | 611 ft | 13 kts | 294° |
| 2026-04-26 18:27 | 48.11091 | 16.56995 | 614 ft | 64 kts | 296° |
| 2026-04-26 18:27 | 48.11381 | 16.56116 | 603 ft | 123 kts | 296° |
| 2026-04-26 18:27 | 48.11786 | 16.54854 | 928 ft | 139 kts | 298° |
| 2026-04-26 18:27 | 48.12110 | 16.53500 | 1534 ft | 141 kts | 276° |
| 2026-04-26 18:28 | 48.11832 | 16.51983 | 1873 ft | 170 kts | 250° |
| 2026-04-26 18:28 | 48.11194 | 16.50294 | 2171 ft | 199 kts | 238° |
| 2026-04-26 18:28 | 48.10258 | 16.48521 | 2469 ft | 237 kts | 232° |
| 2026-04-26 18:28 | 48.09154 | 16.46447 | 2881 ft | 271 kts | 237° |
| 2026-04-26 18:29 | 48.08219 | 16.43869 | 3589 ft | 291 kts | 248° |
| 2026-04-26 18:29 | 48.07375 | 16.41019 | 4481 ft | 307 kts | 249° |
| 2026-04-26 18:29 | 48.06490 | 16.38048 | 5482 ft | 319 kts | 248° |
| 2026-04-26 18:29 | 48.05569 | 16.35087 | 7038 ft | 306 kts | 248° |
| 2026-04-26 18:30 | 48.04805 | 16.32127 | 8162 ft | 312 kts | 262° |
| 2026-04-26 18:30 | 48.04785 | 16.28833 | 8626 ft | 333 kts | 278° |
| 2026-04-26 18:30 | 48.05107 | 16.25287 | 9107 ft | 356 kts | 279° |
| 2026-04-26 18:30 | 48.05357 | 16.21492 | 9595 ft | 379 kts | 274° |
| 2026-04-26 18:31 | 48.05329 | 16.17534 | 10143 ft | 370 kts | 269° |
| 2026-04-26 18:31 | 48.05187 | 16.13807 | 10620 ft | 354 kts | 270° |
| 2026-04-26 18:31 | 48.05150 | 16.10136 | 11099 ft | 354 kts | 272° |
| 2026-04-26 18:31 | 48.05189 | 16.06455 | 11597 ft | 354 kts | 273° |
| 2026-04-26 18:32 | 48.05186 | 16.02776 | 12095 ft | 354 kts | 271° |
| 2026-04-26 18:32 | 48.05141 | 15.99102 | 12607 ft | 354 kts | 271° |
| 2026-04-26 18:32 | 48.05118 | 15.96673 | 12944 ft | 353 kts | 272° |
| 2026-04-26 18:32 | 48.05103 | 15.93010 | 13468 ft | 352 kts | 272° |
| 2026-04-26 18:33 | 48.05082 | 15.88171 | 14162 ft | 352 kts | 272° |
| 2026-04-26 18:33 | 48.05052 | 15.84500 | 14635 ft | 354 kts | 272° |
| 2026-04-26 18:33 | 48.05025 | 15.80803 | 15123 ft | 357 kts | 272° |
| 2026-04-26 18:33 | 48.05003 | 15.77076 | 15615 ft | 359 kts | 272° |
| 2026-04-26 18:34 | 48.04974 | 15.73336 | 16110 ft | 362 kts | 271° |
| 2026-04-26 18:34 | 48.04940 | 15.69570 | 16620 ft | 363 kts | 271° |
| 2026-04-26 18:34 | 48.04920 | 15.67066 | 16957 ft | 364 kts | 271° |
| 2026-04-26 18:34 | 48.04890 | 15.63291 | 17479 ft | 364 kts | 271° |
| 2026-04-26 18:35 | 48.04857 | 15.59506 | 18009 ft | 364 kts | 271° |
| 2026-04-26 18:35 | 48.04821 | 15.55728 | 18545 ft | 363 kts | 271° |
| 2026-04-26 18:35 | 48.04775 | 15.50746 | 19176 ft | 362 kts | 271° |
| 2026-04-26 18:35 | 48.04739 | 15.46991 | 19656 ft | 361 kts | 270° |
| 2026-04-26 18:36 | 48.04700 | 15.43255 | 20141 ft | 359 kts | 270° |
| 2026-04-26 18:36 | 48.04674 | 15.40792 | 20470 ft | 357 kts | 270° |
| 2026-04-26 18:36 | 48.04649 | 15.37088 | 20973 ft | 354 kts | 273° |
| 2026-04-26 18:36 | 48.04736 | 15.33423 | 21486 ft | 352 kts | 272° |
| 2026-04-26 18:37 | 48.04778 | 15.29781 | 22002 ft | 349 kts | 271° |
| 2026-04-26 18:37 | 48.04815 | 15.26181 | 22536 ft | 345 kts | 272° |
| 2026-04-26 18:37 | 48.04877 | 15.22617 | 23073 ft | 341 kts | 272° |
| 2026-04-26 18:37 | 48.04940 | 15.19069 | 23455 ft | 342 kts | 272° |
| 2026-04-26 18:38 | 48.04991 | 15.15505 | 23806 ft | 343 kts | 271° |
| 2026-04-26 18:38 | 48.05041 | 15.11935 | 24113 ft | 344 kts | 271° |
| 2026-04-26 18:38 | 48.05094 | 15.08362 | 24423 ft | 344 kts | 271° |
| 2026-04-26 18:38 | 48.05145 | 15.04834 | 24728 ft | 344 kts | 271° |
| 2026-04-26 18:39 | 48.05194 | 15.01258 | 25039 ft | 344 kts | 271° |
| 2026-04-26 18:39 | 48.05242 | 14.97685 | 25358 ft | 344 kts | 271° |
| 2026-04-26 18:39 | 48.05289 | 14.94121 | 25675 ft | 343 kts | 271° |
| 2026-04-26 18:39 | 48.05335 | 14.90563 | 25996 ft | 342 kts | 271° |
| 2026-04-26 18:40 | 48.05380 | 14.87012 | 26325 ft | 341 kts | 271° |
| 2026-04-26 18:40 | 48.05423 | 14.83476 | 26654 ft | 340 kts | 271° |
| 2026-04-26 18:40 | 48.05459 | 14.79950 | 26988 ft | 338 kts | 271° |
| 2026-04-26 18:40 | 48.05484 | 14.76491 | 27325 ft | 336 kts | 271° |
| 2026-04-26 18:41 | 48.05511 | 14.72963 | 27670 ft | 334 kts | 271° |
| 2026-04-26 18:41 | 48.05539 | 14.69543 | 28014 ft | 332 kts | 271° |
| 2026-04-26 18:41 | 48.05566 | 14.66108 | 28361 ft | 329 kts | 271° |
| 2026-04-26 18:41 | 48.05590 | 14.62705 | 28726 ft | 326 kts | 271° |
| 2026-04-26 18:42 | 48.05613 | 14.59328 | 29091 ft | 323 kts | 271° |
| 2026-04-26 18:42 | 48.05637 | 14.55980 | 29418 ft | 322 kts | 271° |
| 2026-04-26 18:42 | 48.05659 | 14.52615 | 29711 ft | 326 kts | 271° |
| 2026-04-26 18:42 | 48.05680 | 14.49213 | 30004 ft | 329 kts | 271° |
| 2026-04-26 18:43 | 48.05699 | 14.45779 | 30298 ft | 332 kts | 271° |
| 2026-04-26 18:43 | 48.05718 | 14.42352 | 30547 ft | 335 kts | 271° |
| 2026-04-26 18:43 | 48.05736 | 14.38852 | 30800 ft | 338 kts | 271° |
| 2026-04-26 18:43 | 48.05754 | 14.35329 | 31056 ft | 340 kts | 271° |
| 2026-04-26 18:44 | 48.05771 | 14.31782 | 31312 ft | 342 kts | 271° |
| 2026-04-26 18:44 | 48.05786 | 14.28211 | 31581 ft | 345 kts | 271° |
| 2026-04-26 18:44 | 48.05800 | 14.24620 | 31841 ft | 346 kts | 271° |
| 2026-04-26 18:44 | 48.05814 | 14.21008 | 32000 ft | 351 kts | 271° |
| 2026-04-26 18:45 | 48.05837 | 14.13628 | 31985 ft | 362 kts | 271° |
| 2026-04-26 18:45 | 48.05858 | 14.06009 | 31979 ft | 371 kts | 271° |
| 2026-04-26 18:46 | 48.05872 | 13.98198 | 31979 ft | 380 kts | 270° |
| 2026-04-26 18:46 | 48.05883 | 13.90200 | 31977 ft | 389 kts | 270° |
| 2026-04-26 18:47 | 48.05887 | 13.82045 | 31971 ft | 396 kts | 270° |
| 2026-04-26 18:47 | 48.05885 | 13.73733 | 31974 ft | 403 kts | 270° |
| 2026-04-26 18:48 | 48.05879 | 13.65277 | 31976 ft | 410 kts | 270° |
| 2026-04-26 18:48 | 48.05864 | 13.56737 | 31972 ft | 417 kts | 270° |
| 2026-04-26 18:49 | 48.05367 | 13.48044 | 31969 ft | 423 kts | 263° |
| 2026-04-26 18:49 | 48.04592 | 13.39272 | 31971 ft | 429 kts | 264° |
| 2026-04-26 18:50 | 48.03854 | 13.30379 | 32010 ft | 433 kts | 263° |
| 2026-04-26 18:50 | 48.03464 | 13.25971 | 32126 ft | 433 kts | 263° |
| 2026-04-26 18:50 | 48.03078 | 13.21515 | 32224 ft | 434 kts | 263° |
| 2026-04-26 18:51 | 48.02303 | 13.12522 | 32203 ft | 439 kts | 263° |
| 2026-04-26 18:51 | 48.01501 | 13.03437 | 32202 ft | 443 kts | 263° |
| 2026-04-26 18:52 | 48.00691 | 12.94263 | 32207 ft | 447 kts | 263° |
| 2026-04-26 18:52 | 47.99866 | 12.85030 | 32206 ft | 450 kts | 263° |
| 2026-04-26 18:53 | 47.99028 | 12.75762 | 32205 ft | 451 kts | 262° |
| 2026-04-26 18:53 | 47.98185 | 12.66493 | 32204 ft | 451 kts | 262° |
| 2026-04-26 18:54 | 47.97338 | 12.57279 | 32202 ft | 451 kts | 262° |
| 2026-04-26 18:54 | 47.96481 | 12.48004 | 32198 ft | 451 kts | 262° |
| 2026-04-26 18:55 | 47.95614 | 12.38738 | 32200 ft | 451 kts | 262° |
| 2026-04-26 18:55 | 47.94742 | 12.29467 | 32199 ft | 451 kts | 262° |
| 2026-04-26 18:56 | 47.93867 | 12.20270 | 32194 ft | 451 kts | 262° |
| 2026-04-26 18:56 | 47.92978 | 12.11002 | 32191 ft | 451 kts | 262° |
| 2026-04-26 18:57 | 47.92236 | 12.03318 | 32195 ft | 451 kts | 262° |
| 2026-04-26 18:57 | 47.91181 | 11.92496 | 32187 ft | 451 kts | 262° |
| 2026-04-26 18:58 | 47.90271 | 11.83244 | 32185 ft | 451 kts | 262° |
| 2026-04-26 18:58 | 47.89359 | 11.74054 | 32183 ft | 451 kts | 262° |
| 2026-04-26 18:59 | 47.88434 | 11.64818 | 32187 ft | 452 kts | 262° |
| 2026-04-26 18:59 | 47.87500 | 11.55551 | 32185 ft | 452 kts | 262° |
| 2026-04-26 19:00 | 47.86554 | 11.46260 | 31851 ft | 456 kts | 261° |
| 2026-04-26 19:00 | 47.86082 | 11.41642 | 31471 ft | 449 kts | 261° |
| 2026-04-26 19:00 | 47.85618 | 11.37125 | 31099 ft | 445 kts | 261° |
| 2026-04-26 19:01 | 47.85149 | 11.32582 | 30723 ft | 442 kts | 261° |
| 2026-04-26 19:01 | 47.84684 | 11.28070 | 30355 ft | 439 kts | 261° |
| 2026-04-26 19:01 | 47.84216 | 11.23596 | 29899 ft | 437 kts | 261° |
| 2026-04-26 19:01 | 47.83751 | 11.19145 | 29464 ft | 434 kts | 261° |
| 2026-04-26 19:02 | 47.83291 | 11.14725 | 29051 ft | 431 kts | 261° |
| 2026-04-26 19:02 | 47.82829 | 11.10318 | 28631 ft | 430 kts | 261° |
| 2026-04-26 19:02 | 47.82365 | 11.05935 | 28228 ft | 428 kts | 261° |
| 2026-04-26 19:02 | 47.82056 | 11.03050 | 27963 ft | 426 kts | 261° |
| 2026-04-26 19:03 | 47.81458 | 10.97296 | 27439 ft | 423 kts | 263° |
| 2026-04-26 19:03 | 47.81199 | 10.92945 | 27050 ft | 422 kts | 267° |
| 2026-04-26 19:03 | 47.81045 | 10.88601 | 26666 ft | 420 kts | 266° |
| 2026-04-26 19:03 | 47.80794 | 10.84284 | 26286 ft | 418 kts | 264° |
| 2026-04-26 19:04 | 47.80469 | 10.80007 | 25911 ft | 416 kts | 264° |
| 2026-04-26 19:04 | 47.80190 | 10.75730 | 25543 ft | 414 kts | 265° |
| 2026-04-26 19:04 | 47.79956 | 10.71477 | 25181 ft | 412 kts | 266° |
| 2026-04-26 19:04 | 47.79700 | 10.67243 | 24817 ft | 410 kts | 265° |
| 2026-04-26 19:05 | 47.79144 | 10.58835 | 24116 ft | 407 kts | 265° |
| 2026-04-26 19:05 | 47.78960 | 10.55858 | 23869 ft | 405 kts | 266° |
| 2026-04-26 19:05 | 47.78708 | 10.51846 | 23480 ft | 403 kts | 265° |
| 2026-04-26 19:06 | 47.78439 | 10.47712 | 23074 ft | 401 kts | 265° |
| 2026-04-26 19:06 | 47.78168 | 10.43593 | 22668 ft | 399 kts | 265° |
| 2026-04-26 19:06 | 47.77901 | 10.39499 | 22260 ft | 397 kts | 265° |
| 2026-04-26 19:06 | 47.77636 | 10.35431 | 21870 ft | 394 kts | 265° |
| 2026-04-26 19:07 | 47.77368 | 10.31385 | 21479 ft | 393 kts | 265° |
| 2026-04-26 19:07 | 47.77099 | 10.27362 | 21096 ft | 391 kts | 265° |
| 2026-04-26 19:07 | 47.76833 | 10.23345 | 20714 ft | 389 kts | 265° |
| 2026-04-26 19:07 | 47.76569 | 10.19400 | 20344 ft | 387 kts | 265° |
| 2026-04-26 19:08 | 47.76301 | 10.15448 | 20190 ft | 381 kts | 265° |
| 2026-04-26 19:08 | 47.76033 | 10.11498 | 20077 ft | 389 kts | 265° |
| 2026-04-26 19:08 | 47.75763 | 10.07525 | 19762 ft | 383 kts | 265° |
| 2026-04-26 19:08 | 47.75493 | 10.03588 | 19446 ft | 387 kts | 265° |
| 2026-04-26 19:09 | 47.75212 | 9.99503 | 19137 ft | 407 kts | 265° |
| 2026-04-26 19:09 | 47.74921 | 9.95274 | 18834 ft | 413 kts | 265° |
| 2026-04-26 19:09 | 47.74623 | 9.91007 | 18523 ft | 418 kts | 265° |
| 2026-04-26 19:09 | 47.74326 | 9.86770 | 18178 ft | 417 kts | 265° |
| 2026-04-26 19:10 | 47.74025 | 9.82500 | 17833 ft | 416 kts | 265° |
| 2026-04-26 19:10 | 47.73724 | 9.78231 | 17484 ft | 415 kts | 265° |
| 2026-04-26 19:10 | 47.73421 | 9.73978 | 17140 ft | 413 kts | 265° |
| 2026-04-26 19:10 | 47.73119 | 9.69752 | 16803 ft | 411 kts | 265° |
| 2026-04-26 19:11 | 47.72876 | 9.65529 | 16464 ft | 409 kts | 268° |
| 2026-04-26 19:11 | 47.72777 | 9.61312 | 16144 ft | 408 kts | 268° |
| 2026-04-26 19:11 | 47.72650 | 9.57115 | 15814 ft | 406 kts | 268° |
| 2026-04-26 19:11 | 47.72517 | 9.52930 | 15491 ft | 405 kts | 268° |
| 2026-04-26 19:12 | 47.72397 | 9.48754 | 15169 ft | 404 kts | 268° |
| 2026-04-26 19:12 | 47.72105 | 9.44682 | 14859 ft | 404 kts | 257° |
| 2026-04-26 19:12 | 47.71046 | 9.40826 | 14554 ft | 405 kts | 240° |
| 2026-04-26 19:12 | 47.69379 | 9.37462 | 14254 ft | 405 kts | 232° |
| 2026-04-26 19:13 | 47.67593 | 9.34242 | 13947 ft | 404 kts | 232° |
| 2026-04-26 19:13 | 47.65805 | 9.31042 | 13604 ft | 402 kts | 232° |
| 2026-04-26 19:13 | 47.64045 | 9.27838 | 13261 ft | 400 kts | 232° |
| 2026-04-26 19:13 | 47.62298 | 9.24640 | 12922 ft | 398 kts | 232° |
| 2026-04-26 19:14 | 47.60558 | 9.21455 | 12587 ft | 396 kts | 234° |
| 2026-04-26 19:14 | 47.59270 | 9.17962 | 12265 ft | 392 kts | 251° |
| 2026-04-26 19:14 | 47.58639 | 9.14052 | 11956 ft | 390 kts | 260° |
| 2026-04-26 19:14 | 47.58313 | 9.11388 | 11731 ft | 388 kts | 261° |
| 2026-04-26 19:15 | 47.57393 | 9.06301 | 11312 ft | 388 kts | 244° |
| 2026-04-26 19:15 | 47.55861 | 9.03033 | 10990 ft | 388 kts | 227° |
| 2026-04-26 19:15 | 47.53736 | 9.00581 | 10652 ft | 389 kts | 213° |
| 2026-04-26 19:15 | 47.51410 | 8.98560 | 10172 ft | 381 kts | 211° |
| 2026-04-26 19:16 | 47.49137 | 8.96681 | 9558 ft | 369 kts | 210° |
| 2026-04-26 19:16 | 47.46950 | 8.94806 | 8675 ft | 354 kts | 214° |
| 2026-04-26 19:16 | 47.45221 | 8.92588 | 7870 ft | 335 kts | 232° |
| 2026-04-26 19:16 | 47.44073 | 8.89713 | 6745 ft | 330 kts | 250° |
| 2026-04-26 19:17 | 47.43617 | 8.86415 | 5638 ft | 327 kts | 269° |
| 2026-04-26 19:17 | 47.43771 | 8.83185 | 5185 ft | 304 kts | 278° |
| 2026-04-26 19:17 | 47.44046 | 8.80184 | 4757 ft | 286 kts | 277° |
| 2026-04-26 19:17 | 47.44237 | 8.77338 | 4352 ft | 271 kts | 275° |
| 2026-04-26 19:18 | 47.44404 | 8.74627 | 3974 ft | 259 kts | 276° |
| 2026-04-26 19:18 | 47.44593 | 8.72049 | 3607 ft | 247 kts | 278° |
| 2026-04-26 19:18 | 47.44774 | 8.69576 | 3269 ft | 236 kts | 277° |
| 2026-04-26 19:18 | 47.44939 | 8.67240 | 2938 ft | 222 kts | 277° |
| 2026-04-26 19:19 | 47.45093 | 8.65058 | 2624 ft | 212 kts | 277° |
| 2026-04-26 19:19 | 47.45243 | 8.62956 | 2308 ft | 192 kts | 277° |
| 2026-04-26 19:19 | 47.45374 | 8.61126 | 2049 ft | 169 kts | 277° |
| 2026-04-26 19:19 | 47.45500 | 8.59477 | 1820 ft | 155 kts | 276° |
| 2026-04-26 19:20 | 47.45601 | 8.57955 | 1597 ft | 143 kts | 276° |
| 2026-04-26 19:20 | 47.45665 | 8.57008 | 1448 ft | 138 kts | 277° |
| 2026-04-26 19:20 | 47.45771 | 8.55490 | 1396 ft | 57 kts | 275° |
| 2026-04-26 19:20 | 47.45787 | 8.55254 | 1396 ft | 11 kts | 275° |
| 2026-04-26 19:21 | 47.45781 | 8.55166 | 1398 ft | 7 kts | 243° |
| 2026-04-26 19:21 | 47.45739 | 8.55141 | 1396 ft | 7 kts | 165° |
| 2026-04-26 19:21 | 47.45701 | 8.55168 | 1403 ft | 7 kts | 160° |
| 2026-04-26 19:21 | 47.45642 | 8.55202 | 1397 ft | 11 kts | 157° |
| 2026-04-26 19:22 | 47.45558 | 8.55261 | 1402 ft | 16 kts | 153° |
| 2026-04-26 19:22 | 47.45454 | 8.55337 | 1400 ft | 16 kts | 154° |
| 2026-04-26 19:22 | 47.45373 | 8.55391 | 1401 ft | 10 kts | 155° |
| 2026-04-26 19:22 | 47.45315 | 8.55429 | 1400 ft | 9 kts | 156° |
| 2026-04-26 19:23 | 47.45241 | 8.55478 | 1400 ft | 14 kts | 155° |
| 2026-04-26 19:23 | 47.45140 | 8.55550 | 1397 ft | 18 kts | 153° |
| 2026-04-26 19:23 | 47.45014 | 8.55639 | 1403 ft | 22 kts | 153° |
| 2026-04-26 19:23 | 47.44956 | 8.55768 | 1405 ft | 19 kts | 98° |
| 2026-04-26 19:24 | 47.44957 | 8.55901 | 1407 ft | 7 kts | 35° |
| 2026-04-26 19:24 | 47.45005 | 8.55912 | 1403 ft | 7 kts | 5° |
| 2026-04-26 19:24 | 47.45029 | 8.55914 | 1399 ft | 0 kts | 4° |